Time;durP1;ratioP1;P1;durP2;ratioP2;P2;SDS_P1;SDS_P2;PMS_P1;PMS_P2;Temp;Humidity;BMP_temperature;BMP_pressure;BME280_temperature;BME280_humidity;BME280_pressure;Samples;Min_cycle;Max_cycle;Signal;HPM_P1;HPM_P2
2023/08/29 00:01:47;;;;;;;6.28;4.88;;;;;;;12.95;100.00;101135.16;5092356;28;20040;-48
2023/08/29 00:04:14;;;;;;;8.07;5.30;;;;;;;13.33;100.00;101208.63;5092970;28;20122;-48
2023/08/29 00:06:39;;;;;;;5.38;4.60;;;;;;;13.34;100.00;101210.34;5090067;28;20028;-48
2023/08/29 00:09:04;;;;;;;5.72;4.80;;;;;;;13.35;100.00;101203.28;5093444;28;20046;-46
2023/08/29 00:11:30;;;;;;;5.93;4.68;;;;;;;12.93;100.00;101129.94;5091613;28;20039;-47
2023/08/29 00:13:56;;;;;;;6.55;4.68;;;;;;;13.23;100.00;101196.66;5089554;28;20036;-46
2023/08/29 00:16:22;;;;;;;6.47;4.55;;;;;;;12.73;100.00;101115.72;5091640;28;20034;-47
2023/08/29 00:18:47;;;;;;;4.95;4.55;;;;;;;13.21;100.00;101198.53;5092708;28;20036;-45
2023/08/29 00:21:13;;;;;;;6.45;4.93;;;;;;;13.14;100.00;101185.56;5092249;28;20048;-45
2023/08/29 00:23:38;;;;;;;6.45;5.20;;;;;;;13.12;100.00;101177.72;5092894;28;20042;-46
2023/08/29 00:26:03;;;;;;;7.20;5.07;;;;;;;12.77;100.00;101123.50;5091367;28;20028;-46
2023/08/29 00:28:29;;;;;;;7.35;5.20;;;;;;;13.13;100.00;101182.09;5089967;28;20391;-47
2023/08/29 00:30:54;;;;;;;5.50;5.00;;;;;;;13.00;100.00;101159.63;5090612;28;20093;-49
2023/08/29 00:33:20;;;;;;;6.43;5.35;;;;;;;13.10;100.00;101173.41;5092782;28;20107;-47
2023/08/29 00:35:46;;;;;;;6.03;4.95;;;;;;;13.03;100.00;101171.88;5092615;28;20492;-48
2023/08/29 00:38:11;;;;;;;5.43;5.00;;;;;;;12.88;100.00;101160.06;5092357;28;20032;-46
2023/08/29 00:40:37;;;;;;;5.70;4.80;;;;;;;12.93;100.00;101179.25;5092086;28;20123;-52
2023/08/29 00:43:02;;;;;;;7.68;5.38;;;;;;;12.93;100.00;101172.19;5092522;28;20142;-48
2023/08/29 00:45:30;;;;;;;6.13;5.50;;;;;;;12.93;100.00;101181.91;5091267;28;20090;-45
2023/08/29 00:47:56;;;;;;;6.80;6.07;;;;;;;12.43;100.00;101074.63;5092357;28;20146;-46
2023/08/29 00:50:22;;;;;;;6.55;5.15;;;;;;;12.48;100.00;101089.38;5089045;28;20495;-50
2023/08/29 00:52:47;;;;;;;5.43;4.93;;;;;;;12.84;100.00;101169.88;5092576;28;20036;-46
2023/08/29 00:55:13;;;;;;;6.32;5.20;;;;;;;12.39;100.00;101101.13;5092574;28;20490;-46
2023/08/29 00:57:38;;;;;;;5.78;5.00;;;;;;;12.37;100.00;101102.09;5092156;28;20533;-46
2023/08/29 01:00:05;;;;;;;5.90;4.82;;;;;;;12.29;100.00;101088.28;5088738;28;20043;-47
2023/08/29 01:02:31;;;;;;;6.40;5.75;;;;;;;12.76;100.00;101169.31;5091073;28;20044;-47
2023/08/29 01:04:56;;;;;;;5.80;4.53;;;;;;;12.75;100.00;101169.38;5089326;28;20490;-48
2023/08/29 01:07:21;;;;;;;5.22;4.72;;;;;;;12.64;100.00;101156.53;5089600;28;20437;-46
2023/08/29 01:09:47;;;;;;;6.30;4.65;;;;;;;12.33;100.00;101103.97;5073694;28;20078;-46
2023/08/29 01:12:16;;;;;;;6.55;4.88;;;;;;;12.75;100.00;101177.31;5071041;28;20044;-46
2023/08/29 01:14:55;;;;;;;5.32;4.82;;;;;;;12.71;100.00;101158.06;5071842;28;20029;-50
2023/08/29 01:17:35;;;;;;;7.10;5.10;;;;;;;12.76;100.00;101169.31;5071862;28;20073;-53
2023/08/29 01:20:02;;;;;;;5.68;5.18;;;;;;;12.34;100.00;101092.50;5084852;28;20089;-52
2023/08/29 01:22:52;;;;;;;5.65;5.15;;;;;;;12.75;100.00;101162.31;5090751;28;20032;-47
2023/08/29 01:25:52;;;;;;;5.35;4.85;;;;;;;12.77;100.00;101162.25;5090693;28;20111;-49
2023/08/29 01:28:21;;;;;;;7.65;4.85;;;;;;;12.65;100.00;101153.00;5092168;28;20115;-51
2023/08/29 01:30:47;;;;;;;5.35;4.90;;;;;;;12.64;100.00;101169.75;5089084;28;20032;-46
2023/08/29 01:33:12;;;;;;;5.30;4.80;;;;;;;12.37;100.00;101100.28;5090813;28;20111;-49
2023/08/29 01:35:46;;;;;;;6.35;4.97;;;;;;;12.46;100.00;101111.47;5091313;28;20143;-49
2023/08/29 01:38:11;;;;;;;6.43;5.30;;;;;;;12.71;100.00;101151.91;5091724;28;20032;-49
2023/08/29 01:40:37;;;;;;;6.65;5.80;;;;;;;12.67;100.00;101134.44;5095420;28;20116;-48
2023/08/29 01:43:03;;;;;;;8.00;5.18;;;;;;;12.25;100.00;101077.00;5093103;28;20371;-52
2023/08/29 01:45:28;;;;;;;5.68;5.15;;;;;;;12.55;100.00;101138.38;5094910;28;20448;-48
2023/08/29 01:47:53;;;;;;;6.93;5.28;;;;;;;12.56;100.00;101137.47;5077635;28;20425;-54
2023/08/29 01:50:19;;;;;;;5.63;5.00;;;;;;;12.64;100.00;101153.06;5077820;28;20483;-48
2023/08/29 01:52:45;;;;;;;6.72;5.25;;;;;;;12.29;100.00;101101.47;5094692;28;20120;-45
2023/08/29 01:55:10;;;;;;;6.82;5.28;;;;;;;12.36;100.00;101127.63;5092362;28;20461;-52
2023/08/29 01:57:36;;;;;;;5.63;5.10;;;;;;;12.61;100.00;101166.38;5095657;28;20466;-47
2023/08/29 02:00:04;;;;;;;7.40;4.82;;;;;;;12.22;100.00;101095.59;5095748;28;20126;-55
2023/08/29 02:02:29;;;;;;;6.55;5.70;;;;;;;12.49;100.00;101159.75;5094863;28;20035;-49
2023/08/29 02:04:54;;;;;;;6.55;5.53;;;;;;;12.45;100.00;101167.81;5095553;28;20032;-48
2023/08/29 02:07:20;;;;;;;8.82;5.43;;;;;;;12.10;100.00;101103.91;5095475;28;20498;-46
2023/08/29 02:09:45;;;;;;;4.75;4.20;;;;;;;12.41;100.00;101172.34;5094418;28;20463;-46
2023/08/29 02:12:10;;;;;;;7.90;5.18;;;;;;;11.89;100.00;101087.94;5094698;28;20070;-45
2023/08/29 02:14:36;;;;;;;8.07;5.18;;;;;;;12.50;100.00;101161.47;5095565;28;20028;-50
2023/08/29 02:17:01;;;;;;;7.88;5.68;;;;;;;12.17;100.00;101108.06;5095255;28;20032;-47
2023/08/29 02:19:28;;;;;;;6.50;5.40;;;;;;;12.35;100.00;101136.44;5095452;28;20034;-52
2023/08/29 02:21:53;;;;;;;5.75;4.93;;;;;;;12.14;100.00;101092.31;5094453;28;20048;-48
2023/08/29 02:24:18;;;;;;;7.15;5.93;;;;;;;12.16;100.00;101100.19;5095302;28;20118;-46
2023/08/29 02:26:44;;;;;;;6.85;5.72;;;;;;;12.06;100.00;101086.47;5094199;28;20077;-46
2023/08/29 02:29:09;;;;;;;6.97;5.25;;;;;;;12.54;100.00;101163.09;5095296;28;20108;-47
2023/08/29 02:31:35;;;;;;;6.25;5.00;;;;;;;12.29;100.00;101127.88;5094404;28;20027;-49
2023/08/29 02:34:00;;;;;;;5.32;4.82;;;;;;;11.92;100.00;101070.25;5094885;28;20055;-50
2023/08/29 02:36:26;;;;;;;6.53;4.57;;;;;;;12.47;100.00;101155.41;5093643;28;20044;-47
2023/08/29 02:38:53;;;;;;;5.78;4.78;;;;;;;12.44;100.00;101161.66;5091254;28;20040;-49
2023/08/29 02:41:18;;;;;;;5.65;5.15;;;;;;;12.44;100.00;101164.31;5092280;28;20085;-46
2023/08/29 02:43:44;;;;;;;6.68;5.57;;;;;;;12.44;100.00;101169.59;5093742;28;20032;-46
2023/08/29 02:46:09;;;;;;;6.55;5.20;;;;;;;12.01;100.00;101093.69;5094835;28;20036;-49
2023/08/29 02:48:34;;;;;;;5.57;4.90;;;;;;;12.43;100.00;101174.00;5093287;28;20035;-47
2023/08/29 02:51:00;;;;;;;5.70;5.13;;;;;;;12.45;100.00;101168.69;5091691;28;20036;-48
2023/08/29 02:53:26;;;;;;;5.30;4.75;;;;;;;12.07;100.00;101092.59;5085531;28;20028;-48
2023/08/29 02:55:52;;;;;;;5.88;5.28;;;;;;;12.53;100.00;101171.91;5073067;28;20463;-47
2023/08/29 02:58:18;;;;;;;5.15;4.65;;;;;;;12.59;100.00;101189.31;5081086;28;20039;-50
2023/08/29 03:00:44;;;;;;;6.22;5.18;;;;;;;12.66;100.00;101177.63;5091526;28;20115;-49
2023/08/29 03:03:09;;;;;;;4.30;3.90;;;;;;;12.29;100.00;101115.53;5092965;28;20119;-50
2023/08/29 03:05:35;;;;;;;4.97;4.40;;;;;;;12.80;100.00;101172.72;5093811;28;20456;-46
2023/08/29 03:08:03;;;;;;;7.57;5.15;;;;;;;12.87;100.00;101177.72;5094590;28;20040;-49
2023/08/29 03:10:28;;;;;;;6.65;4.78;;;;;;;12.94;100.00;101173.94;5093184;28;20039;-45
2023/08/29 03:12:54;;;;;;;7.30;4.53;;;;;;;12.57;100.00;101106.66;5094425;28;20028;-52
2023/08/29 03:15:19;;;;;;;5.15;4.50;;;;;;;13.04;100.00;101173.59;5093210;28;20116;-51
2023/08/29 03:17:44;;;;;;;5.20;3.88;;;;;;;12.93;100.00;101160.75;5092955;28;20039;-46
2023/08/29 03:20:11;;;;;;;4.00;3.60;;;;;;;13.13;100.00;101174.16;5093513;28;20052;-45
2023/08/29 03:22:36;;;;;;;4.32;3.92;;;;;;;13.24;100.00;101181.69;5094214;28;20040;-47
2023/08/29 03:25:02;;;;;;;4.28;3.90;;;;;;;12.84;100.00;101111.78;5093968;28;20458;-51
2023/08/29 03:27:27;;;;;;;4.75;4.30;;;;;;;13.29;100.00;101177.94;5092794;28;20454;-44
2023/08/29 03:29:53;;;;;;;5.63;4.13;;;;;;;12.82;100.00;101118.91;5078697;28;20399;-45
2023/08/29 03:32:18;;;;;;;7.80;4.60;;;;;;;12.85;100.00;101110.88;5092441;28;20059;-49
2023/08/29 03:34:43;;;;;;;6.40;4.10;;;;;;;12.80;100.00;101102.25;5091276;28;20126;-52
2023/08/29 03:37:09;;;;;;;5.22;4.30;;;;;;;13.23;100.00;101172.88;5093967;28;20528;-51
2023/08/29 03:39:34;;;;;;;4.30;3.85;;;;;;;13.14;100.00;101153.84;5093916;28;20081;-49
2023/08/29 03:41:59;;;;;;;5.55;4.13;;;;;;;13.20;100.00;101175.63;5088922;28;20040;-51
2023/08/29 03:44:25;;;;;;;4.88;3.83;;;;;;;12.79;100.00;101102.28;5094123;28;20043;-47
2023/08/29 03:46:50;;;;;;;5.75;3.90;;;;;;;12.84;100.00;101124.97;5093596;28;20392;-45
2023/08/29 03:49:15;;;;;;;4.60;4.10;;;;;;;13.21;100.00;101179.16;5092298;28;20066;-47
2023/08/29 03:51:41;;;;;;;5.07;4.35;;;;;;;13.21;100.00;101174.72;5091840;28;20032;-52
2023/08/29 03:54:06;;;;;;;7.15;4.45;;;;;;;12.85;100.00;101115.28;5093713;28;20032;-45
2023/08/29 03:56:33;;;;;;;5.63;4.32;;;;;;;12.90;100.00;101113.34;5093582;28;20031;-52
2023/08/29 03:59:01;;;;;;;6.00;4.07;;;;;;;12.82;100.00;101103.06;5093049;28;20464;-53
2023/08/29 04:01:27;;;;;;;4.53;3.47;;;;;;;12.80;100.00;101118.09;5092693;28;20035;-46
2023/08/29 04:03:52;;;;;;;5.72;4.13;;;;;;;12.88;100.00;101141.59;5093300;28;20036;-52
2023/08/29 04:06:19;;;;;;;5.13;3.72;;;;;;;13.01;100.00;101158.72;5093656;28;20049;-51
2023/08/29 04:08:44;;;;;;;4.28;3.85;;;;;;;12.88;100.00;101147.75;5092532;28;20061;-45
2023/08/29 04:11:09;;;;;;;6.38;3.65;;;;;;;12.64;100.00;101102.88;5092321;28;20103;-47
2023/08/29 04:13:34;;;;;;;6.78;4.47;;;;;;;12.50;100.00;101092.81;5093251;28;20036;-45
2023/08/29 04:16:01;;;;;;;6.22;4.18;;;;;;;11.96;100.00;101028.81;5093010;28;20047;-47
2023/08/29 04:18:26;;;;;;;4.07;3.78;;;;;;;12.78;100.00;101154.25;5088257;28;20203;-49
2023/08/29 04:20:51;;;;;;;6.38;3.70;;;;;;;12.35;100.00;101082.78;5091546;28;20193;-48
2023/08/29 04:23:17;;;;;;;6.03;3.92;;;;;;;12.68;100.00;101139.69;5093009;28;20044;-51
2023/08/29 04:25:42;;;;;;;4.05;3.65;;;;;;;12.59;100.00;101133.84;5088893;28;20035;-50
2023/08/29 04:28:07;;;;;;;4.72;4.07;;;;;;;12.20;100.00;101084.19;5092838;28;20509;-47
2023/08/29 04:30:33;;;;;;;4.38;3.75;;;;;;;12.55;100.00;101153.38;5090471;28;20032;-47
2023/08/29 04:32:59;;;;;;;6.30;4.28;;;;;;;12.09;100.00;101081.06;5092566;28;20321;-51
2023/08/29 04:35:24;;;;;;;5.90;4.10;;;;;;;12.47;100.00;101145.72;5093145;28;20040;-47
2023/08/29 04:37:50;;;;;;;4.38;3.97;;;;;;;12.43;100.00;101128.28;5092751;28;20036;-48
2023/08/29 04:40:16;;;;;;;4.57;4.13;;;;;;;12.06;100.00;101080.31;5089010;28;20490;-46
2023/08/29 04:42:42;;;;;;;7.05;4.40;;;;;;;12.39;100.00;101134.56;5074515;28;20029;-46
2023/08/29 04:45:08;;;;;;;4.30;3.90;;;;;;;12.38;100.00;101156.59;5072346;28;20040;-47
2023/08/29 04:47:34;;;;;;;4.80;4.10;;;;;;;12.36;100.00;101153.16;5081091;28;20432;-51
2023/08/29 04:50:00;;;;;;;8.32;4.45;;;;;;;12.31;100.00;101142.78;5092544;28;20038;-47
2023/08/29 04:52:26;;;;;;;5.45;4.28;;;;;;;12.28;100.00;101139.38;5086467;28;20036;-47
2023/08/29 04:54:55;;;;;;;6.18;4.78;;;;;;;12.27;100.00;101137.63;5092512;28;20154;-49
2023/08/29 04:57:21;;;;;;;5.28;4.40;;;;;;;11.74;100.00;101047.13;5091171;28;20081;-46
2023/08/29 04:59:47;;;;;;;6.00;4.25;;;;;;;12.23;100.00;101133.41;5092265;28;20114;-46
2023/08/29 05:02:12;;;;;;;7.18;4.85;;;;;;;12.14;100.00;101117.88;5091390;28;20051;-47
2023/08/29 05:04:38;;;;;;;5.15;4.63;;;;;;;11.72;100.00;101052.47;5091132;28;20038;-50
2023/08/29 05:07:03;;;;;;;6.03;4.57;;;;;;;12.09;100.00;101118.00;5089687;28;20166;-46
2023/08/29 05:09:28;;;;;;;6.28;4.38;;;;;;;11.89;100.00;101082.66;5089105;28;20380;-47
2023/08/29 05:11:54;;;;;;;8.95;4.50;;;;;;;12.32;100.00;101146.25;5090596;28;20093;-48
2023/08/29 05:14:19;;;;;;;7.05;5.38;;;;;;;11.95;100.00;101061.34;5090836;28;20036;-51
2023/08/29 05:16:44;;;;;;;12.43;5.28;;;;;;;11.96;100.00;101061.31;5089278;28;20040;-45
2023/08/29 05:19:10;;;;;;;8.25;6.00;;;;;;;12.43;100.00;101128.28;5092068;28;20594;-45
2023/08/29 05:21:35;;;;;;;6.07;5.45;;;;;;;12.43;100.00;101136.19;5090353;28;20044;-52
2023/08/29 05:24:01;;;;;;;6.13;5.53;;;;;;;12.29;100.00;101091.78;5092298;28;20044;-47
2023/08/29 05:26:27;;;;;;;6.05;5.07;;;;;;;12.47;100.00;101119.31;5092032;28;20032;-47
2023/08/29 05:28:52;;;;;;;6.60;5.43;;;;;;;12.52;100.00;101114.72;5091930;28;20047;-50
2023/08/29 05:31:17;;;;;;;8.00;5.43;;;;;;;12.57;100.00;101123.38;5091181;28;20398;-49
2023/08/29 05:33:43;;;;;;;7.90;5.50;;;;;;;12.24;100.00;101046.22;5091894;28;20035;-49
2023/08/29 05:36:08;;;;;;;7.00;4.95;;;;;;;12.68;100.00;101122.97;5090469;28;20081;-48
2023/08/29 05:38:33;;;;;;;6.80;5.55;;;;;;;12.71;100.00;101113.16;5091061;28;20040;-50
2023/08/29 05:40:59;;;;;;;6.45;5.22;;;;;;;12.75;100.00;101121.84;5091186;28;20086;-48
2023/08/29 05:43:24;;;;;;;6.07;4.93;;;;;;;12.83;100.00;101122.41;5089250;28;20032;-47
2023/08/29 05:45:49;;;;;;;8.52;6.10;;;;;;;12.48;100.00;101060.31;5089017;28;20040;-44
2023/08/29 05:48:14;;;;;;;9.00;5.97;;;;;;;12.91;100.00;101115.91;5091748;28;20114;-46
2023/08/29 05:50:40;;;;;;;10.32;6.45;;;;;;;12.56;100.00;101052.09;5088868;28;20046;-47
2023/08/29 05:53:06;;;;;;;8.25;5.80;;;;;;;12.62;100.00;101057.16;5091013;28;20032;-47
2023/08/29 05:55:32;;;;;;;8.00;5.80;;;;;;;12.65;100.00;101057.91;5092093;28;20086;-47
2023/08/29 05:57:57;;;;;;;7.63;6.43;;;;;;;13.04;100.00;101118.97;5090478;28;20044;-47
2023/08/29 06:00:23;;;;;;;10.10;6.30;;;;;;;13.09;100.00;101121.47;5089016;28;20114;-51
2023/08/29 06:02:51;;;;;;;7.95;6.25;;;;;;;13.14;100.00;101130.94;5090739;28;20046;-46
2023/08/29 06:05:17;;;;;;;6.93;6.22;;;;;;;13.16;100.00;101120.31;5091822;28;20036;-45
2023/08/29 06:07:42;;;;;;;7.65;5.70;;;;;;;13.17;100.00;101108.81;5091623;28;20119;-45
2023/08/29 06:10:08;;;;;;;7.30;5.80;;;;;;;12.87;100.00;101037.69;5089319;28;20047;-48
2023/08/29 06:12:33;;;;;;;6.75;5.68;;;;;;;12.98;100.00;101059.28;5087227;28;20043;-49
2023/08/29 06:14:58;;;;;;;10.02;7.03;;;;;;;13.35;100.00;101131.88;5073714;28;20031;-46
2023/08/29 06:17:24;;;;;;;6.25;5.65;;;;;;;13.05;100.00;101057.25;5088763;28;20044;-49
2023/08/29 06:19:49;;;;;;;8.85;6.35;;;;;;;13.55;100.00;101113.44;5091818;28;20032;-46
2023/08/29 06:22:14;;;;;;;10.27;7.20;;;;;;;13.46;100.00;101092.66;5091757;28;20048;-47
2023/08/29 06:24:39;;;;;;;12.15;8.50;;;;;;;13.52;100.00;101081.81;5095294;28;20399;-50
2023/08/29 06:27:05;;;;;;;7.60;6.90;;;;;;;13.54;100.00;101064.13;5092958;28;20039;-45
2023/08/29 06:29:30;;;;;;;11.50;7.72;;;;;;;13.94;100.00;101111.81;5095079;28;20040;-49
2023/08/29 06:31:56;;;;;;;8.90;6.97;;;;;;;13.98;100.00;101083.44;5093928;28;20040;-43
2023/08/29 06:34:22;;;;;;;7.15;6.43;;;;;;;13.81;100.00;101030.34;5092761;28;20036;-46
2023/08/29 06:36:48;;;;;;;8.07;6.47;;;;;;;14.34;100.00;101097.78;5093974;28;20437;-46
2023/08/29 06:39:13;;;;;;;8.63;6.82;;;;;;;14.47;100.00;101092.81;5093887;28;20085;-46
2023/08/29 06:41:38;;;;;;;10.82;6.20;;;;;;;14.60;100.00;101099.25;5094150;28;20032;-46
2023/08/29 06:44:04;;;;;;;7.40;6.03;;;;;;;14.32;100.00;101035.19;5090871;28;20032;-47
2023/08/29 06:46:29;;;;;;;8.05;6.07;;;;;;;14.82;100.00;101097.38;5094650;28;20036;-49
2023/08/29 06:48:55;;;;;;;8.23;6.28;;;;;;;14.93;100.00;101097.75;5092224;28;20129;-51
2023/08/29 06:51:20;;;;;;;12.23;6.82;;;;;;;14.69;100.00;101027.31;5093563;28;20040;-45
2023/08/29 06:53:45;;;;;;;8.95;5.57;;;;;;;14.94;100.00;101046.47;5094735;28;20029;-44
2023/08/29 06:56:11;;;;;;;5.97;5.25;;;;;;;15.36;100.00;101075.34;5093111;28;20097;-51
2023/08/29 06:58:37;;;;;;;6.93;4.68;;;;;;;15.65;100.00;101085.44;5095051;28;20429;-46
2023/08/29 07:01:02;;;;;;;5.70;4.70;;;;;;;15.39;100.00;101026.59;5091149;28;20047;-49
2023/08/29 07:03:28;;;;;;;8.07;5.68;;;;;;;15.90;100.00;101090.41;5091905;28;20058;-47
2023/08/29 07:05:54;;;;;;;5.40;4.90;;;;;;;16.09;100.00;101096.47;5091941;28;20067;-46
2023/08/29 07:08:19;;;;;;;7.55;4.32;;;;;;;15.87;100.00;101034.81;5088245;28;20032;-48
2023/08/29 07:10:44;;;;;;;6.45;5.20;;;;;;;16.05;100.00;101028.53;5085683;28;20045;-49
2023/08/29 07:13:10;;;;;;;4.35;3.53;;;;;;;16.25;100.00;101036.34;5073787;28;20028;-47
2023/08/29 07:15:35;;;;;;;4.55;4.10;;;;;;;16.74;100.00;101095.72;5073676;28;20041;-47
2023/08/29 07:18:00;;;;;;;6.97;4.07;;;;;;;16.84;100.00;101098.75;5074208;28;20036;-48
2023/08/29 07:20:26;;;;;;;6.28;4.07;;;;;;;16.44;100.00;101001.66;5070276;28;20064;-47
2023/08/29 07:22:51;;;;;;;5.45;3.78;;;;;;;17.20;100.00;101104.72;5075614;28;20043;-52
2023/08/29 07:25:18;;;;;;;5.32;3.88;;;;;;;17.63;100.00;101105.84;5084638;28;20029;-48
2023/08/29 07:27:43;;;;;;;4.18;3.78;;;;;;;17.83;100.00;101033.66;5073856;28;20408;-48
2023/08/29 07:30:14;;;;;;;4.97;4.05;;;;;;;18.42;100.00;101047.81;5078360;28;20147;-49
2023/08/29 07:32:40;;;;;;;6.93;4.10;;;;;;;18.84;100.00;101063.88;5071526;28;20037;-49
2023/08/29 07:35:06;;;;;;;6.90;3.33;;;;;;;19.00;100.00;101064.59;5075645;28;20327;-47
2023/08/29 07:37:31;;;;;;;5.20;3.13;;;;;;;19.43;100.00;101123.28;5089812;28;20040;-46
2023/08/29 07:39:56;;;;;;;4.70;3.05;;;;;;;19.29;100.00;101113.47;5089942;28;20086;-48
2023/08/29 07:42:22;;;;;;;3.45;3.03;;;;;;;18.98;100.00;101060.31;5083800;28;20051;-50
2023/08/29 07:44:47;;;;;;;3.35;3.05;;;;;;;18.83;100.00;101050.63;5089888;28;20050;-46
2023/08/29 07:47:12;;;;;;;3.42;3.10;;;;;;;18.87;100.00;101046.81;5090410;28;20105;-48
2023/08/29 07:49:38;;;;;;;5.38;3.42;;;;;;;19.27;100.00;101122.50;5070600;28;20466;-45
2023/08/29 07:52:03;;;;;;;5.68;3.13;;;;;;;18.89;100.00;101066.22;5071229;28;20041;-51
2023/08/29 07:54:29;;;;;;;4.40;3.08;;;;;;;19.22;100.00;101133.47;5069828;28;20480;-50
2023/08/29 07:56:54;;;;;;;4.07;3.40;;;;;;;19.21;100.00;101115.75;5076597;28;20104;-46
2023/08/29 07:59:20;;;;;;;3.90;3.55;;;;;;;19.52;100.00;101131.56;5084996;28;20122;-49
2023/08/29 08:01:46;;;;;;;4.38;3.83;;;;;;;19.91;100.00;101128.06;5082548;28;20471;-49
2023/08/29 08:04:12;;;;;;;6.50;3.88;;;;;;;20.18;100.00;101120.88;5085636;28;20040;-48
2023/08/29 08:06:37;;;;;;;6.47;4.03;;;;;;;20.43;100.00;101128.09;5058322;28;20031;-47
2023/08/29 08:09:04;;;;;;;4.43;3.45;;;;;;;20.61;100.00;101124.16;5089125;28;20031;-50
2023/08/29 08:11:30;;;;;;;13.10;3.65;;;;;;;20.42;100.00;101069.41;5088173;28;20043;-51
2023/08/29 08:13:56;;;;;;;10.77;3.60;;;;;;;20.53;100.00;101117.63;5087008;28;20451;-47
2023/08/29 08:16:21;;;;;;;4.13;3.15;;;;;;;20.50;100.00;101139.25;5088481;28;20093;-48
2023/08/29 08:18:46;;;;;;;4.57;2.72;;;;;;;20.01;100.00;101082.91;5077946;28;20141;-48
2023/08/29 08:21:12;;;;;;;4.13;2.65;;;;;;;20.16;100.00;101128.16;5083712;28;20071;-52
2023/08/29 08:23:37;;;;;;;3.70;2.97;;;;;;;20.15;100.00;101137.13;5082170;28;20045;-49
2023/08/29 08:26:04;;;;;;;4.20;3.63;;;;;;;19.84;100.00;101140.13;5089595;28;20147;-50
2023/08/29 08:28:29;;;;;;;4.32;3.70;;;;;;;19.69;100.00;101146.47;5089751;28;20040;-47
2023/08/29 08:30:54;;;;;;;4.72;3.58;;;;;;;19.23;100.00;101063.16;5090754;28;20119;-46
2023/08/29 08:33:20;;;;;;;5.07;3.58;;;;;;;19.62;100.00;101095.28;5089213;28;20032;-48
2023/08/29 08:35:45;;;;;;;4.53;3.90;;;;;;;20.26;100.00;101132.91;5082254;28;20043;-46
2023/08/29 08:38:11;;;;;;;6.18;4.15;;;;;;;20.37;100.00;101058.19;5081602;28;20039;-49
2023/08/29 08:40:38;;;;;;;6.00;3.63;;;;;;;20.96;100.00;101053.91;5088164;28;20040;-55
2023/08/29 08:43:04;;;;;;;4.32;3.55;;;;;;;21.89;100.00;101080.09;5081125;28;20040;-47
2023/08/29 08:45:30;;;;;;;4.07;3.72;;;;;;;22.88;100.00;101133.16;5079025;28;20046;-48
2023/08/29 08:47:56;;;;;;;4.85;4.10;;;;;;;23.23;100.00;101077.50;5068662;28;20033;-50
2023/08/29 08:50:21;;;;;;;4.60;4.20;;;;;;;23.90;100.00;101093.44;5087493;28;20226;-48
2023/08/29 08:52:49;;;;;;;5.03;3.78;;;;;;;24.58;100.00;101131.50;5088983;28;20428;-50
2023/08/29 08:55:14;;;;;;;3.92;3.17;;;;;;;24.94;100.00;101108.63;5081462;28;20113;-48
2023/08/29 08:57:41;;;;;;;2.42;2.22;;;;;;;25.69;100.00;101152.16;5084687;28;20039;-46
2023/08/29 09:00:07;;;;;;;2.95;2.63;;;;;;;25.90;100.00;101108.91;5077264;28;20042;-52
2023/08/29 09:02:33;;;;;;;2.50;2.30;;;;;;;26.47;100.00;101124.25;5079107;28;20032;-50
2023/08/29 09:04:59;;;;;;;2.10;1.48;;;;;;;27.09;100.00;101106.56;5086380;28;20043;-47
2023/08/29 09:07:24;;;;;;;4.05;2.25;;;;;;;27.28;100.00;101147.88;5082138;28;20036;-46
2023/08/29 09:10:15;;;;;;;1.52;1.30;;;;;;;27.89;100.00;101156.22;5089956;28;20032;-49
2023/08/29 09:12:54;;;;;;;;;;;;;;;28.12;100.00;101158.50;5081915;28;20044;-49
2023/08/29 09:15:20;;;;;;;2.08;1.42;;;;;;;27.84;100.00;101163.09;5084429;28;20421;-48
2023/08/29 09:17:47;;;;;;;1.92;1.42;;;;;;;27.04;100.00;101152.09;5073687;28;20064;-49
2023/08/29 09:20:12;;;;;;;1.80;1.10;;;;;;;25.84;100.00;101122.94;5088522;28;20035;-48
2023/08/29 09:22:42;;;;;;;2.67;1.50;;;;;;;25.16;100.00;101138.06;5078803;28;20052;-53
2023/08/29 09:25:08;;;;;;;2.55;1.60;;;;;;;23.95;100.00;101069.72;5090150;28;20040;-45
2023/08/29 09:27:47;;;;;;;1.80;1.23;;;;;;;23.80;100.00;101122.94;5090016;28;20177;-52
2023/08/29 09:30:17;;;;;;;2.10;1.90;;;;;;;23.11;100.00;101091.91;5089503;28;20040;-45
2023/08/29 09:32:44;;;;;;;2.07;1.80;;;;;;;22.67;100.00;101116.91;5079369;28;20059;-49
2023/08/29 09:35:14;;;;;;;3.10;1.63;;;;;;;22.60;100.00;101123.69;5085457;28;20301;-47
2023/08/29 09:37:42;;;;;;;2.63;1.60;;;;;;;22.49;100.00;101121.00;5086791;28;20487;-47
2023/08/29 09:40:09;;;;;;;1.45;1.00;;;;;;;22.30;100.00;101096.53;5081777;28;20085;-45
2023/08/29 09:42:35;;;;;;;1.92;0.85;;;;;;;22.29;100.00;101106.44;5086667;28;20518;-48
2023/08/29 09:45:00;;;;;;;1.65;1.00;;;;;;;22.27;100.00;101091.44;5089878;28;20032;-51
2023/08/29 09:47:26;;;;;;;1.00;1.00;;;;;;;23.06;100.00;101094.09;5089573;28;20036;-45
2023/08/29 09:49:51;;;;;;;2.90;1.25;;;;;;;24.43;100.00;101105.91;5089204;28;20487;-46
2023/08/29 09:52:18;;;;;;;1.52;1.20;;;;;;;25.40;100.00;101115.31;5075026;28;20040;-48
2023/08/29 09:54:51;;;;;;;1.50;1.40;;;;;;;26.27;100.00;101120.69;5068358;28;20128;-45
2023/08/29 09:57:19;;;;;;;2.33;1.10;;;;;;;26.96;100.00;101138.50;5081185;28;20073;-50
2023/08/29 09:59:45;;;;;;;1.25;1.15;;;;;;;27.50;100.00;101137.69;5089503;28;20033;-48
2023/08/29 10:02:11;;;;;;;1.90;1.58;;;;;;;27.49;100.00;101076.50;5074737;28;20571;-47
2023/08/29 10:04:43;;;;;;;1.60;1.50;;;;;;;28.04;100.00;101116.00;5082797;28;20036;-47
2023/08/29 10:07:12;;;;;;;2.05;1.92;;;;;;;28.11;100.00;101081.88;5092187;28;20042;-47
2023/08/29 10:09:38;;;;;;;2.38;1.70;;;;;;;28.21;100.00;101074.53;5071561;28;20399;-48
2023/08/29 10:12:04;;;;;;;1.75;1.50;;;;;;;28.95;100.00;101133.63;5071948;28;20036;-51
2023/08/29 10:14:31;;;;;;;2.38;1.90;;;;;;;28.52;100.00;101134.47;5072579;28;20033;-47
2023/08/29 10:16:58;;;;;;;1.77;1.67;;;;;;;26.94;100.00;101083.75;5077733;28;20028;-48
2023/08/29 10:19:25;;;;;;;1.98;1.40;;;;;;;25.59;100.00;101075.81;5092535;28;20040;-46
2023/08/29 10:21:52;;;;;;;1.23;1.13;;;;;;;24.75;100.00;101057.34;5088472;28;20484;-50
2023/08/29 10:24:18;;;;;;;2.20;1.17;;;;;;;24.54;100.00;101105.84;5082972;28;20040;-49
2023/08/29 10:26:44;;;;;;;2.10;0.70;;;;;;;24.43;100.00;101105.06;5090395;28;20584;-52
2023/08/29 10:29:09;;;;;;;1.60;0.85;;;;;;;24.35;100.00;101100.34;5054647;28;20131;-48
2023/08/29 10:31:35;;;;;;;1.83;0.60;;;;;;;24.44;100.00;101102.22;5078848;28;20115;-49
2023/08/29 10:34:04;;;;;;;0.85;0.80;;;;;;;24.60;100.00;101099.94;5074287;28;20058;-51
2023/08/29 10:36:30;;;;;;;0.80;0.65;;;;;;;24.42;100.00;101001.09;5070824;28;20423;-48
2023/08/29 10:38:59;;;;;;;1.83;0.90;;;;;;;25.28;100.00;101109.16;5073931;28;20028;-49
2023/08/29 10:41:24;;;;;;;1.55;0.80;;;;;;;25.22;100.00;101098.94;5093492;28;20028;-47
2023/08/29 10:43:53;;;;;;;0.80;0.65;;;;;;;25.42;100.00;101106.13;5080383;28;20044;-53
2023/08/29 10:46:20;;;;;;;1.27;0.68;;;;;;;25.26;100.00;101094.13;5088715;28;20046;-50
2023/08/29 10:48:46;;;;;;;1.95;0.88;;;;;;;25.21;100.00;101104.47;5088313;28;20036;-48
2023/08/29 10:51:16;;;;;;;1.25;0.75;;;;;;;24.94;100.00;101105.94;5091589;28;20479;-51
2023/08/29 10:53:48;;;;;;;1.35;0.90;;;;;;;24.77;100.00;101105.69;5086468;28;20036;-47
2023/08/29 10:56:17;;;;;;;1.35;0.88;;;;;;;24.01;100.00;101048.53;5080252;28;20055;-50
2023/08/29 10:58:44;;;;;;;1.80;0.82;;;;;;;23.83;100.00;101050.09;5078323;28;20503;-47
2023/08/29 11:01:36;;;;;;;1.15;0.80;;;;;;;23.75;100.00;101046.34;5092474;28;20032;-47
2023/08/29 11:04:11;;;;;;;0.77;0.63;;;;;;;23.55;100.00;101048.00;5092566;28;20139;-47
2023/08/29 11:06:50;;;;;;;0.95;0.68;;;;;;;23.74;100.00;101074.19;5073140;28;20028;-45
2023/08/29 11:09:23;;;;;;;1.70;0.93;;;;;;;23.34;100.00;101025.56;5089710;28;20039;-47
2023/08/29 11:12:12;;;;;;;0.90;0.85;;;;;;;23.52;100.00;101089.41;5092437;28;20032;-48
2023/08/29 11:14:55;;;;;;;0.82;0.80;;;;;;;23.10;100.00;101035.63;5091028;28;20051;-48